createdAt,value
2023-06-19T04:18:06.133Z,100259.19
2023-06-19T04:21:09.623Z,100266.44
2023-06-19T04:24:12.373Z,100259.56
2023-06-19T04:27:15.319Z,100267.13
2023-06-19T04:30:17.966Z,100270.81
2023-06-19T04:33:22.421Z,100271.75
2023-06-19T04:36:25.362Z,100269.59
2023-06-19T04:39:28.203Z,100262.84
2023-06-19T04:42:30.814Z,100265.41
2023-06-19T04:45:33.804Z,100268.91
2023-06-19T04:48:37.728Z,100277.25
2023-06-19T04:51:42.452Z,100276.69
2023-06-19T04:54:45.046Z,100281.09
2023-06-19T04:57:48.052Z,100280.13
2023-06-19T05:00:54.204Z,100276.00
2023-06-19T05:03:57.748Z,100286.94
2023-06-19T05:07:00.765Z,100281.81
2023-06-19T05:10:03.702Z,100281.28
2023-06-19T05:13:06.217Z,100295.16
2023-06-19T05:16:09.107Z,100291.94
2023-06-19T05:19:11.623Z,100293.72
2023-06-19T05:22:14.693Z,100295.41
2023-06-19T05:25:17.290Z,100296.06
2023-06-19T05:28:20.226Z,100304.00
2023-06-19T05:31:22.901Z,100308.75
2023-06-19T05:38:04.089Z,100305.28
2023-06-19T05:41:08.119Z,100307.81
2023-06-19T05:44:11.014Z,100297.87
2023-06-19T05:47:14.036Z,100302.97
2023-06-19T06:01:54.264Z,100326.41
2023-06-19T06:04:57.705Z,100329.59
2023-06-19T06:08:00.662Z,100330.22
2023-06-19T06:11:03.572Z,100336.47
2023-06-19T06:14:06.112Z,100339.09
2023-06-19T06:17:09.049Z,100340.62
2023-06-19T06:20:14.538Z,100328.75
2023-06-19T06:23:17.496Z,100328.97
2023-06-19T06:26:20.284Z,100334.47
2023-06-19T06:29:23.172Z,100341.03
2023-06-19T06:32:26.037Z,100342.06
2023-06-19T06:35:32.064Z,100333.09
2023-06-19T06:38:34.638Z,100334.34
2023-06-19T06:41:38.022Z,100333.59
2023-06-19T06:44:40.982Z,100329.13
2023-06-19T06:47:43.871Z,100335.87
2023-06-19T06:50:46.523Z,100335.41
2023-06-19T06:53:49.379Z,100337.97
2023-06-19T06:56:53.880Z,100343.50
2023-06-19T06:59:56.731Z,100333.72
2023-06-19T07:02:59.521Z,100331.72
2023-06-19T07:06:03.958Z,100323.94
2023-06-19T07:09:06.599Z,100333.84
2023-06-19T07:12:09.670Z,100334.28
2023-06-19T07:15:13.128Z,100334.09
2023-06-19T07:18:16.002Z,100328.81
2023-06-19T07:21:18.707Z,100322.31
2023-06-19T07:24:24.925Z,100326.69
2023-06-19T07:27:33.620Z,100328.78
2023-06-19T07:30:36.428Z,100314.97
2023-06-19T07:33:39.890Z,100318.00
2023-06-19T07:36:44.559Z,100320.31
2023-06-19T07:39:51.246Z,100323.56
2023-06-19T07:42:54.136Z,100326.53
2023-06-19T07:45:56.777Z,100332.50
2023-06-19T07:48:59.693Z,100324.69
2023-06-19T07:52:02.834Z,100323.47
2023-06-19T07:55:06.235Z,100327.88
2023-06-19T07:58:08.909Z,100319.41
2023-06-19T08:01:12.085Z,100326.56
2023-06-19T08:04:15.038Z,100314.56
2023-06-19T08:07:18.213Z,100314.69
2023-06-19T08:10:21.138Z,100311.31
2023-06-19T08:13:23.719Z,100311.66
2023-06-19T08:16:27.284Z,100314.41
2023-06-19T08:19:31.910Z,100320.41
2023-06-19T08:22:37.052Z,100318.31
2023-06-19T08:36:32.291Z,100315.59
2023-06-19T08:39:36.957Z,100321.91
2023-06-19T08:42:40.952Z,100313.97
2023-06-19T08:46:15.773Z,100319.34
2023-06-19T08:49:18.514Z,100311.69
2023-06-19T08:52:21.972Z,100315.34
2023-06-19T08:55:24.924Z,100312.63
2023-06-19T08:58:28.451Z,100311.81
2023-06-19T09:01:31.111Z,100314.87
2023-06-19T09:04:35.009Z,100305.25
2023-06-19T09:07:37.648Z,100304.25
2023-06-19T09:10:40.578Z,100309.78
2023-06-19T09:13:43.060Z,100300.66
2023-06-19T09:16:45.932Z,100302.34
2023-06-19T09:19:50.222Z,100303.03
2023-06-19T09:22:59.120Z,100308.69
2023-06-19T09:26:01.730Z,100312.94
2023-06-19T09:29:20.225Z,100311.25
2023-06-19T09:32:26.848Z,100304.91
2023-06-19T09:35:29.753Z,100300.47
2023-06-19T09:38:42.100Z,100307.31
2023-06-19T09:41:48.574Z,100296.19
2023-06-19T09:44:55.643Z,100297.44
2023-06-19T09:47:58.612Z,100297.00
2023-06-19T09:51:24.527Z,100297.28
2023-06-19T09:54:28.099Z,100291.37
2023-06-19T09:57:31.334Z,100288.13
2023-06-19T10:00:35.851Z,100292.19
2023-06-19T10:03:39.125Z,100284.44
2023-06-19T10:06:48.579Z,100275.16
2023-06-19T10:10:01.265Z,100274.84
2023-06-19T10:13:14.609Z,100276.50
2023-06-19T10:16:22.727Z,100264.56
2023-06-19T10:49:25.247Z,100246.22
2023-06-19T10:52:31.588Z,100249.78
2023-06-19T10:55:36.460Z,100244.13
2023-06-19T10:58:39.632Z,100244.56
2023-06-19T11:01:45.281Z,100243.94
2023-06-19T11:04:48.240Z,100235.66
2023-06-19T11:08:00.741Z,100245.09
2023-06-19T11:11:04.314Z,100248.81
2023-06-19T11:14:07.531Z,100239.59
2023-06-19T11:17:10.787Z,100237.88
2023-06-19T11:20:17.319Z,100244.44
2023-06-19T11:23:28.085Z,100239.53
2023-06-19T11:26:35.720Z,100232.12
2023-06-19T11:29:38.607Z,100233.06
2023-06-19T11:32:45.809Z,100236.94
2023-06-19T11:35:58.377Z,100228.75
2023-06-19T11:39:01.988Z,100223.94
2023-06-19T11:42:05.324Z,100229.00
2023-06-19T11:48:59.461Z,100228.03
2023-06-19T11:52:09.459Z,100212.19
2023-06-19T11:55:12.308Z,100211.28
2023-06-19T11:58:16.499Z,100209.44
2023-06-19T12:01:19.081Z,100204.06
2023-06-19T12:04:22.596Z,100207.50
2023-06-19T12:07:26.648Z,100209.09
2023-06-19T12:10:29.983Z,100216.22
2023-06-19T12:13:32.467Z,100205.97
2023-06-19T12:16:35.370Z,100208.50
2023-06-19T12:19:37.954Z,100203.56
2023-06-19T12:22:41.502Z,100200.66
2023-06-19T12:25:44.414Z,100192.50
2023-06-19T12:28:47.673Z,100186.75
2023-06-19T12:31:50.294Z,100191.97
2023-06-19T12:34:55.086Z,100178.72
2023-06-19T12:37:57.740Z,100178.97
2023-06-19T12:41:00.584Z,100178.78
2023-06-19T12:44:03.300Z,100168.91
2023-06-19T12:47:06.815Z,100167.03
2023-06-19T12:50:10.084Z,100173.16
2023-06-19T12:53:13.091Z,100167.19
2023-06-19T12:56:16.092Z,100161.81
2023-06-19T12:59:19.543Z,100156.97
2023-06-19T13:02:22.379Z,100160.19
2023-06-19T13:05:25.367Z,100153.84
2023-06-19T13:08:27.933Z,100153.25
2023-06-19T13:11:30.816Z,100154.69
2023-06-19T13:14:33.402Z,100152.13
2023-06-19T13:17:36.396Z,100152.66
2023-06-19T13:20:39.041Z,100149.44
2023-06-19T13:23:42.004Z,100140.22
2023-06-19T13:26:45.532Z,100140.09
2023-06-19T13:48:36.021Z,100135.59
2023-06-19T13:51:38.983Z,100131.97
2023-06-19T13:54:41.850Z,100141.25
2023-06-19T13:57:44.756Z,100143.66
2023-06-19T14:00:47.320Z,100138.53
2023-06-19T14:03:50.370Z,100134.69
2023-06-19T14:06:52.984Z,100138.38
2023-06-19T14:09:55.857Z,100143.22
2023-06-19T14:12:58.993Z,100135.28
2023-06-19T14:16:02.905Z,100133.47
2023-06-19T14:19:05.433Z,100132.13
2023-06-19T14:22:08.360Z,100133.47
2023-06-19T14:25:10.971Z,100125.25
2023-06-19T14:28:16.172Z,100122.78
2023-06-19T14:31:18.713Z,100124.41
2023-06-19T14:34:21.728Z,100124.75
2023-06-19T14:37:24.429Z,100124.28
